Simpson, North Carolina
Current Conditions -  °F | °C
As of 2:10 AM on Friday 31 Oct 2014 (Local Time) from KPGV Reporting Station
Clear Clear  
Wind Chill: 48°   Ceiling: Unl
Heat Index: 48°   Visibility: 10mi
Dew Point: 45°   Wind: 3mph
Humidity: 87%   Direction: 30°NNE
Pressure: 29.98"   Gusts: NA
Location:  35.58°N, 77.28°W
Report Text: KPGV 310610Z AUTO 03003KT 10SM CLR 09/07 A2998 RMK AO2
Loading
Personal Weather Stations






























Interactive Weather Map
Tropical Storm Tracking
New forecast layout! Learn more

10-Day Weather Forecast

Advertisements
Track Severe Weather on mobile